createdAt,value
2023-05-08T00:02:42.667Z,101796.40
2023-05-08T00:07:46.384Z,101796.20
2023-05-08T00:12:49.537Z,101799.20
2023-05-08T00:17:52.729Z,101798.00
2023-05-08T00:22:57.028Z,101798.00
2023-05-08T00:28:01.175Z,101797.20
2023-05-08T00:33:04.839Z,101801.20
2023-05-08T00:38:07.986Z,101812.60
2023-05-08T00:43:11.206Z,101812.60
2023-05-08T00:48:14.411Z,101814.80
2023-05-08T00:53:19.418Z,101812.20
2023-05-08T00:58:27.386Z,101828.00
2023-05-08T01:03:36.285Z,101818.60
2023-05-08T01:08:39.937Z,101825.20
2023-05-08T01:14:04.858Z,101832.80
2023-05-08T01:19:53.224Z,101840.40
2023-05-08T01:25:58.307Z,101837.40
2023-05-08T01:31:22.618Z,101839.20
2023-05-08T01:36:39.931Z,101844.40
2023-05-08T01:41:54.102Z,101848.20
2023-05-08T01:46:59.645Z,101855.00
2023-05-08T01:52:14.233Z,101851.40
2023-05-08T01:57:20.993Z,101855.80
2023-05-08T02:02:26.350Z,101848.40
2023-05-08T02:07:29.600Z,101857.00
2023-05-08T02:12:34.421Z,101863.80
2023-05-08T02:17:41.130Z,101864.40
2023-05-08T02:22:49.300Z,101861.00
2023-05-08T02:27:55.504Z,101867.00
2023-05-08T02:33:01.402Z,101864.00
2023-05-08T02:38:11.061Z,101864.60
2023-05-08T02:43:14.587Z,101879.20
2023-05-08T02:48:33.564Z,101882.60
2023-05-08T02:53:48.088Z,101879.60
2023-05-08T02:59:02.707Z,101879.20
2023-05-08T03:04:11.077Z,101875.40
2023-05-08T03:09:21.678Z,101878.20
2023-05-08T03:14:29.434Z,101880.40
2023-05-08T03:19:39.509Z,101881.60
2023-05-08T03:24:46.171Z,101884.20
2023-05-08T03:29:52.480Z,101888.00
2023-05-08T03:34:59.873Z,101887.40
2023-05-08T03:40:04.039Z,101886.20
2023-05-08T03:45:11.049Z,101887.80
2023-05-08T03:50:15.405Z,101886.60
2023-05-08T03:55:18.551Z,101886.20
2023-05-08T04:00:43.680Z,101890.20
2023-05-08T04:06:16.140Z,101891.00
2023-05-08T04:11:32.152Z,101897.20
2023-05-08T04:16:46.054Z,101893.00
2023-05-08T04:21:51.789Z,101900.20
2023-05-08T04:26:55.563Z,101896.60
2023-05-08T04:32:01.893Z,101897.60
2023-05-08T04:37:08.183Z,101910.20
2023-05-08T04:42:11.203Z,101914.20
2023-05-08T04:47:14.956Z,101911.40
2023-05-08T04:52:18.147Z,101909.00
2023-05-08T04:57:21.248Z,101917.00
2023-05-08T05:02:27.339Z,101921.80
2023-05-08T05:07:30.539Z,101922.60
2023-05-08T05:12:33.727Z,101925.20
2023-05-08T05:17:36.921Z,101929.60
2023-05-08T05:22:40.729Z,101931.60
2023-05-08T05:27:45.511Z,101932.00
2023-05-08T05:32:49.664Z,101936.00
2023-05-08T05:37:52.743Z,101940.20
2023-05-08T05:42:56.048Z,101943.60
2023-05-08T05:47:59.179Z,101944.00
2023-05-08T05:53:02.673Z,101942.80
2023-05-08T05:58:05.778Z,101947.80
2023-05-08T06:03:10.997Z,101948.40
2023-05-08T06:08:14.245Z,101953.00
2023-05-08T06:13:17.573Z,101960.40
2023-05-08T06:18:24.480Z,101958.40
2023-05-08T06:23:27.973Z,101966.60
2023-05-08T06:28:31.178Z,101964.40
2023-05-08T06:33:34.282Z,101971.80
2023-05-08T06:38:37.617Z,101966.20
2023-05-08T06:43:41.022Z,101964.60
2023-05-08T06:48:44.224Z,101967.20
2023-05-08T06:53:47.324Z,101961.40
2023-05-08T06:59:00.919Z,101961.20
2023-05-08T07:04:11.039Z,101968.00
2023-05-08T07:09:14.461Z,101973.20
2023-05-08T07:14:17.682Z,101967.40
2023-05-08T07:19:22.577Z,101972.60
2023-05-08T07:24:26.039Z,101977.20
2023-05-08T07:29:29.450Z,101976.40
2023-05-08T07:34:35.095Z,101976.20
2023-05-08T07:39:38.215Z,101974.00
2023-05-08T07:44:53.769Z,101965.20
2023-05-08T07:49:58.474Z,101963.40
2023-05-08T07:55:01.682Z,101966.40
2023-05-08T08:00:09.390Z,101963.20
2023-05-08T08:05:13.239Z,101958.20
2023-05-08T08:10:16.820Z,101961.60
2023-05-08T08:15:23.146Z,101958.60
2023-05-08T08:20:26.318Z,101957.00
2023-05-08T08:25:29.999Z,101947.60
2023-05-08T08:30:33.242Z,101945.60
2023-05-08T08:35:36.463Z,101943.00
2023-05-08T08:40:41.765Z,101940.20
2023-05-08T08:45:45.634Z,101938.00
2023-05-08T08:50:57.543Z,101935.20
2023-05-08T08:56:04.251Z,101939.60
2023-05-08T09:01:14.883Z,101946.20
2023-05-08T09:06:19.776Z,101947.60
2023-05-08T09:11:24.641Z,101944.80
2023-05-08T09:16:28.880Z,101941.80
2023-05-08T09:21:32.885Z,101938.40
2023-05-08T09:26:39.869Z,101934.80
2023-05-08T09:31:52.688Z,101931.40
2023-05-08T09:37:05.745Z,101924.80
2023-05-08T09:42:09.605Z,101926.20
2023-05-08T09:47:20.125Z,101920.20
2023-05-08T09:52:24.480Z,101915.00
2023-05-08T09:57:29.431Z,101912.20
2023-05-08T10:02:33.195Z,101912.40
2023-05-08T10:07:39.338Z,101915.20
2023-05-08T10:12:42.836Z,101911.80
2023-05-08T10:17:58.425Z,101905.20
2023-05-08T10:23:03.910Z,101900.40
2023-05-08T10:28:18.696Z,101905.60
2023-05-08T10:33:32.185Z,101899.60
2023-05-08T10:38:38.035Z,101897.20
2023-05-08T10:43:44.314Z,101891.00
2023-05-08T10:49:24.992Z,101886.40
2023-05-08T10:54:54.206Z,101880.80
2023-05-08T10:59:57.530Z,101878.40
2023-05-08T11:05:18.423Z,101880.00
2023-05-08T11:10:23.045Z,101869.80
2023-05-08T11:15:41.752Z,101863.40
2023-05-08T11:21:15.705Z,101862.20
2023-05-08T11:26:18.799Z,101855.00
2023-05-08T11:31:22.245Z,101848.20
2023-05-08T11:36:26.035Z,101846.20
2023-05-08T11:41:29.225Z,101848.80
2023-05-08T11:46:51.396Z,101847.40
2023-05-08T11:51:58.804Z,101838.80
2023-05-08T11:57:02.708Z,101843.60
2023-05-08T12:02:09.113Z,101828.60
2023-05-08T12:07:13.230Z,101831.00
2023-05-08T12:12:16.539Z,101827.00
2023-05-08T12:17:20.127Z,101822.80
2023-05-08T12:22:23.499Z,101821.80
2023-05-08T12:27:27.306Z,101819.80
2023-05-08T12:32:30.749Z,101816.40
2023-05-08T12:37:34.122Z,101816.20
2023-05-08T12:42:50.214Z,101813.20
2023-05-08T12:47:58.884Z,101803.40
2023-05-08T12:53:18.502Z,101807.40
2023-05-08T12:58:27.045Z,101811.80
2023-05-08T13:03:31.326Z,101807.60
2023-05-08T13:08:39.366Z,101801.20
2023-05-08T13:13:42.475Z,101798.00
2023-05-08T13:18:45.974Z,101790.60
2023-05-08T13:23:49.121Z,101792.00
2023-05-08T13:28:54.571Z,101789.80
2023-05-08T13:33:59.385Z,101788.80
2023-05-08T13:39:02.599Z,101785.40
2023-05-08T13:44:06.123Z,101780.80
2023-05-08T13:49:09.219Z,101771.80
2023-05-08T13:54:12.323Z,101771.60
2023-05-08T13:59:16.249Z,101765.20
2023-05-08T14:04:19.656Z,101763.40
2023-05-08T14:09:22.770Z,101759.60
2023-05-08T14:14:26.073Z,101760.00
2023-05-08T14:19:29.391Z,101749.60
2023-05-08T14:24:33.004Z,101748.20
2023-05-08T14:29:36.526Z,101749.00
2023-05-08T14:34:39.628Z,101750.80
2023-05-08T14:39:42.840Z,101750.40
2023-05-08T14:44:46.277Z,101753.20
2023-05-08T14:49:49.565Z,101753.60
2023-05-08T14:54:53.954Z,101745.00
2023-05-08T14:59:57.413Z,101745.20
2023-05-08T15:05:00.555Z,101742.00
2023-05-08T15:10:04.755Z,101738.20
2023-05-08T15:15:08.405Z,101738.40
2023-05-08T15:20:11.997Z,101738.00
2023-05-08T15:25:41.107Z,101738.20
2023-05-08T15:30:47.286Z,101730.40
2023-05-08T15:35:49.264Z,101723.80
2023-05-08T15:40:51.083Z,101726.60
2023-05-08T15:45:53.010Z,101729.60
2023-05-08T15:50:55.102Z,101723.00
2023-05-08T15:55:57.415Z,101717.00
2023-05-08T16:00:59.595Z,101716.60
2023-05-08T16:06:01.594Z,101714.20
2023-05-08T16:11:03.958Z,101709.40
2023-05-08T16:16:06.178Z,101708.60
2023-05-08T16:21:17.150Z,101703.00
2023-05-08T16:26:19.942Z,101705.20
2023-05-08T16:31:22.018Z,101702.20
2023-05-08T16:36:23.689Z,101704.80
2023-05-08T16:41:27.400Z,101702.00
2023-05-08T16:46:30.438Z,101701.80
2023-05-08T16:51:32.583Z,101707.40
2023-05-08T16:56:34.572Z,101709.20
2023-05-08T17:01:36.518Z,101715.00
2023-05-08T17:06:42.537Z,101712.60
2023-05-08T17:11:44.408Z,101715.40
2023-05-08T17:16:46.431Z,101719.00
2023-05-08T17:21:48.689Z,101721.40
2023-05-08T17:26:50.572Z,101724.00
2023-05-08T17:31:52.542Z,101723.00
2023-05-08T17:36:55.089Z,101722.80
2023-05-08T17:41:57.195Z,101721.20
2023-05-08T17:46:59.072Z,101718.00
2023-05-08T17:52:03.000Z,101722.40
2023-05-08T17:57:04.881Z,101726.40
2023-05-08T18:02:07.245Z,101730.20
2023-05-08T18:07:09.071Z,101728.00
2023-05-08T18:12:11.129Z,101736.60
2023-05-08T18:17:16.486Z,101739.20
2023-05-08T18:22:18.365Z,101748.80
2023-05-08T18:27:20.163Z,101752.40
2023-05-08T18:32:22.130Z,101762.60
2023-05-08T18:37:24.527Z,101761.20
2023-05-08T18:42:26.486Z,101772.80
2023-05-08T18:47:28.432Z,101777.60
2023-05-08T18:52:30.365Z,101782.20
2023-05-08T18:57:32.332Z,101784.20
2023-05-08T19:02:34.422Z,101797.00
2023-05-08T19:07:37.212Z,101793.60
2023-05-08T19:12:39.423Z,101793.20
2023-05-08T19:17:42.213Z,101795.60
2023-05-08T19:22:44.166Z,101793.20
2023-05-08T19:27:46.251Z,101784.60
2023-05-08T19:32:49.365Z,101783.40
2023-05-08T19:37:51.234Z,101786.80
2023-05-08T19:42:53.225Z,101790.00
2023-05-08T19:47:55.020Z,101788.80
2023-05-08T19:52:57.069Z,101792.00
2023-05-08T19:57:58.844Z,101788.20
2023-05-08T20:03:00.698Z,101793.80
2023-05-08T20:08:02.681Z,101791.40
2023-05-08T20:13:05.207Z,101797.40
2023-05-08T20:18:07.521Z,101789.80
2023-05-08T20:23:09.665Z,101788.40
2023-05-08T20:28:11.971Z,101786.20
2023-05-08T20:33:14.034Z,101790.00
2023-05-08T20:38:15.996Z,101796.00
2023-05-08T20:43:19.222Z,101794.60
2023-05-08T20:48:21.301Z,101791.60
2023-05-08T20:53:23.205Z,101792.20
2023-05-08T20:58:25.058Z,101791.80
2023-05-08T21:03:27.276Z,101793.40
2023-05-08T21:08:29.017Z,101791.80
2023-05-08T21:13:31.620Z,101796.40
2023-05-08T21:18:33.390Z,101798.60
2023-05-08T21:23:35.171Z,101797.20
2023-05-08T21:28:36.946Z,101802.00
2023-05-08T21:33:38.924Z,101803.00
2023-05-08T21:38:41.695Z,101805.80
2023-05-08T21:43:43.807Z,101804.80
2023-05-08T21:48:45.795Z,101801.60
2023-05-08T21:53:47.761Z,101800.00
2023-05-08T21:58:49.751Z,101802.20
2023-05-08T22:03:51.652Z,101803.20
2023-05-08T22:08:53.814Z,101805.00
2023-05-08T22:13:55.591Z,101804.40
2023-05-08T22:18:57.461Z,101805.00
2023-05-08T22:23:59.549Z,101804.80
2023-05-08T22:29:01.417Z,101802.20
2023-05-08T22:34:03.192Z,101798.60
2023-05-08T22:39:07.542Z,101798.60
2023-05-08T22:44:10.463Z,101797.20
2023-05-08T22:49:12.522Z,101792.00
2023-05-08T22:54:14.287Z,101797.60
2023-05-08T22:59:16.170Z,101799.40
2023-05-08T23:04:18.224Z,101811.80
2023-05-08T23:09:20.231Z,101806.60
2023-05-08T23:14:22.006Z,101806.40
2023-05-08T23:19:23.779Z,101801.60
2023-05-08T23:24:25.796Z,101799.20
2023-05-08T23:29:28.660Z,101799.80
2023-05-08T23:34:30.448Z,101796.00
2023-05-08T23:39:37.327Z,101792.40
2023-05-08T23:44:39.208Z,101794.60
2023-05-08T23:49:41.056Z,101789.60
2023-05-08T23:54:42.763Z,101793.20
2023-05-08T23:59:44.632Z,101790.00
